Station CPXA2 - Captains Bay Image indicating link to RSS feed of recent meteorological observations for station CPXA2


Conditions at CPXA2 as of
(11:44 pm AKDT on 04/20/2024)
0744 GMT on 04/21/2024:
     

Click on the graph icon in the table below to see a time series plot of the last five days of that observation.

5-day plot - Wind Direction Wind Direction (WDIR): S ( 170 deg true )
5-day plot - Wind Speed Wind Speed (WSPD): 7 kts
5-day plot - Wind Gust Wind Gust (GST): 11 kts
5-day plot - Air Temperature Air Temperature (ATMP): 36.9 °F
5-day plot - Dew Point Dew Point (DEWP): 33.4 °F
5-day plot - Wind Chill Wind Chill (CHILL): 30.7 °F
5-day plot - Wind Speed at 10 Meters Wind Speed at 10 meters (WSPD10M): 6 kts
5-day plot - Wind Speed at 20 Meters Wind Speed at 20 meters (WSPD20M): 8 kts
5-day plot -  Wind Speed, Wind Gust and Atmospheric Pressure Combined plot of Wind Speed, Gust, and Air Pressure
Previous observations
TIME
(AKDT)
5-day plot - Wind Direction
WDIR
 
5-day plot - Wind Speed
WSPD
kts
5-day plot - Wind Gust
GST
kts
5-day plot - Wave Height
WVHT
ft
5-day plot - Dominant Wave Period
DPD
sec
5-day plot - Average Wave Period
APD
sec
5-day plot - Mean Wave Direction
MWD
 
5-day plot - Atmospheric Pressure
PRES
in
5-day plot - Pressure Tendency
PTDY
in
5-day plot - Air Temperature
ATMP
°F
5-day plot - Water Temperature
WTMP
°F
5-day plot - Dew Point
DEWP
°F
5-day plot - Salinity
SAL
psu
5-day plot - Visibility
VIS
nmi
5-day plot - Tide (above MLLW)
TIDE
ft
2024-04-20 11:34 pm S 6 11------ 37.0- 33.4---
2024-04-20 11:24 pmSSE 5 10------ 36.9- 33.3---
2024-04-20 11:14 pmSSE 7 13------ 37.0- 33.3---
2024-04-20 11:04 pm S 6 11------ 36.9- 33.4---
2024-04-20 10:54 pm S 5 8------ 36.7- 33.6---
2024-04-20 10:44 pm S 6 9------ 36.7- 33.8---
2024-04-20 10:34 pm S 6 9------ 36.9- 34.0---
2024-04-20 10:24 pmSSE 6 9------ 37.0- 33.6---
2024-04-20 10:14 pm S 6 9------ 37.0- 33.4---
2024-04-20 10:04 pm S 6 9------ 37.0- 33.4---
2024-04-20 09:54 pm S 5 10------ 37.2- 33.6---
2024-04-20 09:44 pmSSE 5 9------ 37.2- 33.6---
2024-04-20 09:34 pm S 7 12------ 37.4- 33.3---
2024-04-20 09:24 pmSSE 7 11------ 37.6- 33.3---
2024-04-20 09:14 pm S 7 11------ 37.8- 33.4---
2024-04-20 09:04 pm S 7 12------ 37.9- 33.4---
2024-04-20 08:54 pm S 9 14------ 37.9- 33.1---
2024-04-20 08:44 pm S 6 11------ 38.1- 33.1---
2024-04-20 08:34 pm S 5 10------ 38.5- 33.3---
2024-04-20 08:24 pm S 5 9------ 38.3- 32.9---
2024-04-20 08:14 pm S 5 12------ 38.5- 32.9---
2024-04-20 08:04 pm S 5 11------ 38.7- 32.7---
2024-04-20 07:44 pm SW 3 8------ 39.4- 32.4---
2024-04-20 07:34 pm SW 2 5------ 39.6- 32.0---
2024-04-20 07:24 pm NW 1 2------ 39.7- 32.4---
2024-04-20 07:14 pm W 1 2------ 39.6- 32.4---
2024-04-20 07:04 pmWNW 2 2------ 39.4- 32.2---
2024-04-20 06:54 pmNNW 2 3------ 39.6- 32.4---
2024-04-20 06:44 pmNNW 3 4------ 39.0- 32.2---
2024-04-20 06:34 pm N 3 4------ 38.8- 32.2---
2024-04-20 06:24 pm N 3 4------ 38.3- 32.0---
2024-04-20 06:14 pm N 4 6------ 37.9- 32.0---
2024-04-20 06:04 pm N 4 6------ 37.6- 31.6---
2024-04-20 05:54 pm N 5 7------ 37.4- 31.6---
2024-04-20 05:44 pm N 5 7------ 37.2- 31.6---
2024-04-20 05:34 pm N 5 8------ 37.2- 31.6---
2024-04-20 05:24 pm N 5 8------ 37.2- 31.6---
2024-04-20 05:14 pm N 5 7------ 37.4- 31.5---
2024-04-20 05:04 pm N 5 8------ 37.0- 30.9---
2024-04-20 04:54 pm N 5 7------ 37.2- 30.9---
2024-04-20 04:44 pm N 4 5------ 37.4- 30.9---
2024-04-20 04:34 pm N 4 6------ 37.2- 30.9---
2024-04-20 04:24 pm N 4 5------ 37.4- 30.9---
2024-04-20 04:14 pm N 3 5------ 37.6- 30.9---
2024-04-20 03:54 pm NW 2 4------ 37.8- 30.2---
2024-04-20 03:44 pm W 2 3------ 38.7- 30.6---
2024-04-20 03:34 pm SW 2 5------ 38.3- 30.7---
2024-04-20 03:24 pm SW 3 5------ 37.9- 30.6---
2024-04-20 03:14 pm W 2 3------ 38.1- 30.6---
2024-04-20 03:04 pmWNW 2 3------ 37.9- 30.4---
2024-04-20 02:54 pmWNW 1 2------ 37.4- 30.4---
2024-04-20 02:44 pm N 2 4------ 37.0- 30.2---
2024-04-20 02:34 pm N 2 5------ 36.5- 30.4---
2024-04-20 02:24 pm NW 2 4------ 36.5- 30.6---
2024-04-20 02:14 pm W 2 4------ 36.1- 30.2---
2024-04-20 02:04 pmWNW 2 4------ 36.0- 29.7---
2024-04-20 01:54 pmWNW 2 4------ 35.8- 29.7---
2024-04-20 01:44 pmWNW 2 3------ 35.6- 29.3---
2024-04-20 01:34 pmNNW 2 3------ 35.6- 29.1---
2024-04-20 01:24 pm N 3 4------ 35.4- 29.1---
2024-04-20 01:14 pm N 4 5------ 35.1- 29.1---
2024-04-20 01:04 pm N 3 5------ 36.0- 29.1---
2024-04-20 12:54 pmNNW 1 2------ 36.5- 29.3---
2024-04-20 12:44 pm W 1 2------ 36.0- 29.1---
2024-04-20 12:34 pm W 1 2------ 36.0- 28.8---
2024-04-20 12:24 pm- 0 2------ 35.6- 28.8---
2024-04-20 12:14 pmSSE 2 4------ 34.9- 28.6---
2024-04-20 12:04 pm S 1 3------ 34.5- 28.8---
2024-04-20 11:54 am SW 2 3------ 34.0- 28.4---
2024-04-20 11:44 amWSW 2 2------ 33.8- 28.2---
2024-04-20 11:34 amWSW 2 3------ 34.0- 28.0---
2024-04-20 11:24 amSSW 1 2------ 33.8- 27.9---
2024-04-20 11:14 am S 2 2------ 33.1- 27.5---
2024-04-20 11:04 am S 2 3------ 32.2- 27.3---
2024-04-20 10:54 amSSW 2 3------ 32.2- 27.0---
2024-04-20 10:44 am SW 1 2------ 32.0- 27.0---
2024-04-20 10:34 am S 2 3------ 31.6- 26.4---
2024-04-20 10:24 am SW 2 3------ 31.3- 26.2---
2024-04-20 10:14 am S 2 3------ 30.9- 25.9---
2024-04-20 10:04 am SW 1 2------ 30.7- 26.1---
2024-04-20 09:54 am- 0 2------ 30.2- 25.7---
2024-04-20 09:44 amSSE 2 3------ 29.7- 25.7---
2024-04-20 09:34 amSSW 2 3------ 29.5- 25.9---
2024-04-20 09:24 am SW 2 3------ 28.9- 25.2---
2024-04-20 09:04 am SE 1 2------ 28.2- 24.8---
2024-04-20 08:54 amSSE 2 4------ 27.9- 24.8---
2024-04-20 08:44 am S 3 4------ 27.5- 24.4---
2024-04-20 08:34 am S 2 5------ 27.5- 24.6---
2024-04-20 08:24 am S 3 5------ 27.3- 24.4---
2024-04-20 08:14 am S 2 4------ 27.3- 24.3---
2024-04-20 08:09 am NE 1 2------ 27.1- 24.3---
2024-04-20 08:04 am NE 1 2------ 27.1- 24.3---
2024-04-20 07:44 am- 0 2------ 27.3- 24.3---
2024-04-20 07:34 am- 0 2------ 27.5- 24.4---
2024-04-20 07:24 amESE 1 2------ 27.5- 24.4---
2024-04-20 07:14 amSSW 2 3------ 27.7- 24.6---
2024-04-20 07:04 am- 0 2------ 27.5- 24.4---
2024-04-20 06:54 amESE 2 3------ 27.5- 24.4---
2024-04-20 06:44 am S 2 4------ 27.7- 24.8---
2024-04-20 06:34 amSSW 2 3------ 28.0- 25.0---
2024-04-20 06:24 am S 1 2------ 28.0- 25.0---
2024-04-20 06:14 amSSE 2 3------ 28.0- 25.3---
2024-04-20 06:04 am S 1 3------ 28.2- 25.7---
2024-04-20 05:54 am S 2 3------ 28.2- 26.1---
2024-04-20 05:44 am S 1 3------ 28.4- 26.4---
2024-04-20 05:34 am S 2 3------ 28.8- 26.8---
2024-04-20 05:24 am S 2 2------ 28.9- 27.1---
2024-04-20 05:14 am S 2 3------ 29.1- 27.1---
2024-04-20 05:04 am S 2 3------ 29.5- 27.3---
2024-04-20 04:54 am S 2 3------ 29.7- 27.3---
2024-04-20 04:44 am- 0 3------ 29.7- 27.3---
2024-04-20 04:34 am E 2 3------ 29.3- 27.0---
2024-04-20 04:24 amENE 2 3------ 29.7- 27.5---
2024-04-20 04:14 am N 2 3------ 29.8- 28.0---
2024-04-20 04:04 amNNW 1 3------ 30.2- 28.8---
2024-04-20 03:54 am- 0 1------ 30.2- 28.9---
2024-04-20 03:44 am N 1 2------ 30.4- 29.3---
2024-04-20 03:34 am- 0 1------ 30.7- 29.7---
2024-04-20 03:24 am- 0 2------ 30.7- 29.7---
2024-04-20 03:14 am S 1 2------ 30.6- 29.5---
2024-04-20 03:04 am S 1 2------ 30.6- 29.5---
2024-04-20 02:54 amSSE 2 3------ 30.7- 29.7---
2024-04-20 02:44 amSSE 2 3------ 30.7- 29.7---
2024-04-20 02:34 am S 2 2------ 30.7- 29.5---
2024-04-20 02:24 am S 2 3------ 30.9- 29.7---
2024-04-20 02:14 am S 2 3------ 30.9- 29.7---
2024-04-20 02:04 am S 2 3------ 31.3- 29.7---
2024-04-20 01:54 am- 0 1------ 31.5- 29.7---
2024-04-20 01:44 am- 0 2------ 31.5- 29.5---
2024-04-20 01:34 am- 0 1------ 31.5- 29.5---
2024-04-20 01:24 am- 0 1------ 31.5- 29.1---
2024-04-20 01:14 am- 0 1------ 31.8- 28.9---
2024-04-20 01:04 am- 0 2------ 31.8- 28.9---
2024-04-20 12:54 am- 0 2------ 31.6- 28.8---
2024-04-20 12:44 am E 2 3------ 31.8- 28.9---
2024-04-20 12:34 am E 1 2------ 31.8- 28.8---
2024-04-20 12:24 amWSW 2 3------ 31.8- 28.8---
2024-04-20 12:15 amWSW 2 4------ 31.8- 28.8---
2024-04-20 12:04 amWSW 2 3------ 32.0- 29.1---
2024-04-19 11:54 pm- 0 2------ 32.0- 28.9---
2024-04-19 11:44 pmSSE 1 3------ 32.0- 28.8---
2024-04-19 11:34 pmWSW 2 4------ 31.6- 28.6---
2024-04-19 11:24 pmWSW 3 5------ 31.8- 28.4---
2024-04-19 11:14 pmWSW 3 4------ 32.0- 28.0---
2024-04-19 11:04 pm S 2 4------ 31.8- 28.0---
2024-04-19 10:54 pm S 3 7------ 32.0- 27.9---